createdAt,value
2019-02-18T00:00:23.506Z,99.90
2019-02-18T00:02:52.463Z,99.90
2019-02-18T00:05:21.405Z,99.90
2019-02-18T00:07:50.356Z,99.90
2019-02-18T00:10:19.209Z,99.90
2019-02-18T00:12:48.149Z,99.90
2019-02-18T00:15:17.659Z,99.90
2019-02-18T00:17:46.579Z,99.90
2019-02-18T00:20:15.515Z,99.90
2019-02-18T00:22:54.528Z,99.90
2019-02-18T00:25:23.912Z,99.90
2019-02-18T00:27:52.952Z,99.90
2019-02-18T00:30:22.192Z,99.90
2019-02-18T00:32:51.542Z,99.90
2019-02-18T00:35:20.793Z,99.90
2019-02-18T00:37:49.991Z,99.90
2019-02-18T00:40:19.190Z,99.90
2019-02-18T00:42:48.392Z,99.90
2019-02-18T00:45:17.662Z,99.90
2019-02-18T00:47:48.117Z,99.90
2019-02-18T00:50:17.180Z,99.90
2019-02-18T00:52:46.138Z,99.90
2019-02-18T00:55:15.084Z,99.90
2019-02-18T00:57:43.982Z,99.90
2019-02-18T01:00:17.357Z,99.90
2019-02-18T01:02:46.220Z,99.90
2019-02-18T01:05:15.170Z,99.90
2019-02-18T01:07:44.018Z,99.90
2019-02-18T01:10:13.641Z,99.90
2019-02-18T01:12:43.053Z,99.90
2019-02-18T01:15:14.507Z,99.90
2019-02-18T01:17:43.753Z,99.90
2019-02-18T01:20:14.253Z,99.90
2019-02-18T01:22:43.682Z,99.90
2019-02-18T01:25:15.942Z,99.90
2019-02-18T01:27:44.926Z,99.90
2019-02-18T01:30:16.111Z,99.90
2019-02-18T01:32:45.424Z,99.90
2019-02-18T01:35:14.951Z,99.90
2019-02-18T01:37:46.148Z,99.90
2019-02-18T01:40:15.294Z,99.90
2019-02-18T01:42:44.572Z,99.90
2019-02-18T01:45:14.983Z,99.90
2019-02-18T01:47:44.214Z,99.90
2019-02-18T01:50:14.984Z,99.90
2019-02-18T01:52:44.523Z,99.90
2019-02-18T01:55:14.431Z,99.90
2019-02-18T01:57:55.522Z,99.90
2019-02-18T02:00:24.771Z,99.90
2019-02-18T02:02:54.011Z,99.90
2019-02-18T02:05:23.527Z,99.90
2019-02-18T02:07:56.454Z,99.90
2019-02-18T02:10:23.805Z,99.90
2019-02-18T02:12:54.491Z,99.90
2019-02-18T02:15:28.081Z,99.90
2019-02-18T02:17:57.414Z,99.90
2019-02-18T02:20:26.931Z,99.90
2019-02-18T02:22:56.032Z,99.90
2019-02-18T02:25:25.322Z,99.90
2019-02-18T02:27:54.382Z,99.90
2019-02-18T02:30:24.233Z,99.90
2019-02-18T02:32:53.304Z,99.90
2019-02-18T02:35:22.313Z,99.90
2019-02-18T02:37:51.166Z,99.90
2019-02-18T02:40:20.131Z,99.90
2019-02-18T02:42:49.071Z,99.90
2019-02-18T02:45:23.627Z,99.90
2019-02-18T02:47:52.813Z,99.90
2019-02-18T02:50:21.912Z,99.90
2019-02-18T02:52:51.072Z,99.90
2019-02-18T02:55:20.255Z,99.90
2019-02-18T02:57:49.402Z,99.90
2019-02-18T03:00:18.664Z,99.90
2019-02-18T03:02:47.669Z,99.90
2019-02-18T03:05:16.549Z,99.90
2019-02-18T03:07:45.493Z,99.90
2019-02-18T03:10:14.738Z,99.90
2019-02-18T03:12:43.761Z,99.90
2019-02-18T03:15:15.614Z,99.90
2019-02-18T03:17:45.077Z,99.90
2019-02-18T03:20:14.112Z,99.90
2019-02-18T03:22:43.023Z,99.90
2019-02-18T03:25:17.354Z,99.90
2019-02-18T03:27:46.395Z,99.90
2019-02-18T03:30:33.539Z,99.90
2019-02-18T03:33:02.623Z,99.90
2019-02-18T03:35:31.843Z,99.90
2019-02-18T03:38:01.202Z,99.90
2019-02-18T03:40:30.651Z,99.90
2019-02-18T03:42:59.910Z,99.90
2019-02-18T03:45:29.134Z,99.90
2019-02-18T03:47:58.334Z,99.90
2019-02-18T03:50:27.641Z,99.90
2019-02-18T03:52:56.771Z,99.90
2019-02-18T03:55:26.101Z,99.90
2019-02-18T03:57:55.373Z,99.90
2019-02-18T04:00:24.572Z,99.90
2019-02-18T04:02:54.125Z,99.90
2019-02-18T04:05:23.431Z,99.90
2019-02-18T04:07:52.843Z,99.90
2019-02-18T04:10:22.201Z,99.90
2019-02-18T04:12:51.443Z,99.90
2019-02-18T04:15:21.183Z,99.90
2019-02-18T04:17:50.351Z,99.90
2019-02-18T04:20:24.702Z,99.90
2019-02-18T04:22:53.943Z,99.90
2019-02-18T04:25:22.803Z,99.90
2019-02-18T04:27:51.717Z,99.90
2019-02-18T04:30:20.665Z,99.90
2019-02-18T04:32:49.593Z,99.90
2019-02-18T04:35:18.459Z,99.90
2019-02-18T04:37:47.369Z,99.90
2019-02-18T04:40:16.298Z,99.90
2019-02-18T04:42:45.229Z,99.90
2019-02-18T04:45:14.163Z,99.90
2019-02-18T04:47:43.072Z,99.90
2019-02-18T04:50:12.110Z,99.90
2019-02-18T04:52:41.038Z,99.90
2019-02-18T04:55:11.636Z,99.90
2019-02-18T04:57:40.560Z,99.90
2019-02-18T05:00:10.374Z,99.90
2019-02-18T05:02:39.254Z,99.90
2019-02-18T05:05:09.913Z,99.90
2019-02-18T05:07:38.831Z,99.90
2019-02-18T05:10:10.137Z,99.90
2019-02-18T05:12:39.442Z,99.90
2019-02-18T05:15:09.552Z,99.90
2019-02-18T05:17:38.782Z,99.90
2019-02-18T05:20:08.848Z,99.90
2019-02-18T05:22:37.827Z,99.90
2019-02-18T05:25:12.913Z,99.90
2019-02-18T05:27:41.437Z,99.90
2019-02-18T05:30:13.122Z,99.90
2019-02-18T05:32:42.020Z,99.90
2019-02-18T05:35:10.900Z,99.90
2019-02-18T05:37:39.912Z,99.90
2019-02-18T05:40:09.042Z,99.90
2019-02-18T05:42:37.930Z,99.90
2019-02-18T05:45:08.670Z,99.90
2019-02-18T05:47:37.629Z,99.90
2019-02-18T05:50:08.215Z,99.90
2019-02-18T05:52:37.106Z,99.90
2019-02-18T05:55:07.475Z,99.90
2019-02-18T05:57:36.655Z,99.90
2019-02-18T06:00:09.306Z,99.90
2019-02-18T06:02:38.166Z,99.90
2019-02-18T06:05:07.805Z,99.90
2019-02-18T06:07:36.872Z,99.90
2019-02-18T06:10:08.513Z,99.90
2019-02-18T06:12:37.393Z,99.90
2019-02-18T06:15:09.126Z,99.90
2019-02-18T06:17:38.013Z,99.90
2019-02-18T06:20:09.072Z,99.90
2019-02-18T06:22:38.810Z,99.90
2019-02-18T06:25:07.931Z,99.90
2019-02-18T06:27:36.920Z,99.90
2019-02-18T06:30:08.602Z,99.90
2019-02-18T06:32:37.564Z,99.90
2019-02-18T06:35:07.197Z,99.90
2019-02-18T06:37:36.147Z,99.90
2019-02-18T06:40:07.235Z,99.90
2019-02-18T06:42:36.585Z,99.90
2019-02-18T06:45:27.742Z,99.90
2019-02-18T06:47:58.173Z,99.90
2019-02-18T06:50:27.502Z,99.90
2019-02-18T06:52:56.842Z,99.90
2019-02-18T06:55:26.302Z,99.90
2019-02-18T06:58:13.032Z,99.90
2019-02-18T07:00:58.693Z,99.90
2019-02-18T07:03:45.492Z,99.90
2019-02-18T07:06:28.422Z,99.90
2019-02-18T07:08:59.283Z,99.90
2019-02-18T07:11:36.183Z,99.90
2019-02-18T07:14:05.352Z,99.90
2019-02-18T07:16:34.566Z,99.90
2019-02-18T07:19:03.932Z,99.90
2019-02-18T07:21:33.082Z,99.90
2019-02-18T07:24:02.331Z,99.90
2019-02-18T07:26:31.473Z,99.90
2019-02-18T07:29:00.851Z,99.90
2019-02-18T07:31:30.112Z,99.90
2019-02-18T07:33:59.412Z,99.90
2019-02-18T07:36:28.452Z,99.90
2019-02-18T07:38:57.672Z,99.90
2019-02-18T07:41:26.812Z,99.90
2019-02-18T07:43:55.934Z,99.90
2019-02-18T07:46:25.171Z,99.90
2019-02-18T07:48:54.173Z,99.90
2019-02-18T07:51:23.432Z,99.90
2019-02-18T07:53:52.511Z,99.90
2019-02-18T07:56:21.762Z,99.90
2019-02-18T07:58:50.962Z,99.90
2019-02-18T08:01:20.262Z,99.90
2019-02-18T08:03:49.130Z,99.90
2019-02-18T08:06:18.049Z,99.90
2019-02-18T08:08:46.950Z,99.90
2019-02-18T08:11:15.867Z,99.90
2019-02-18T08:13:54.812Z,99.90
2019-02-18T08:16:24.012Z,99.90
2019-02-18T08:18:53.172Z,99.90
2019-02-18T08:21:22.462Z,99.90
2019-02-18T08:23:59.776Z,99.90
2019-02-18T08:26:22.302Z,99.90
2019-02-18T08:28:51.566Z,99.90
2019-02-18T08:31:20.732Z,99.90
2019-02-18T08:33:49.942Z,99.90
2019-02-18T08:36:18.831Z,99.90
2019-02-18T08:38:47.722Z,99.90
2019-02-18T08:41:16.703Z,99.90
2019-02-18T08:43:45.601Z,99.90
2019-02-18T08:46:14.465Z,99.90
2019-02-18T08:48:43.390Z,99.90
2019-02-18T08:51:12.284Z,99.90
2019-02-18T08:53:41.206Z,99.90
2019-02-18T08:56:10.101Z,99.90
2019-02-18T08:58:39.044Z,99.90
2019-02-18T09:01:20.112Z,99.90
2019-02-18T09:03:49.432Z,99.90
2019-02-18T09:06:18.482Z,99.90
2019-02-18T09:08:47.673Z,99.90
2019-02-18T09:11:16.782Z,99.90
2019-02-18T09:13:45.952Z,99.90
2019-02-18T09:16:15.242Z,99.90
2019-02-18T09:18:44.334Z,99.90
2019-02-18T09:21:13.372Z,99.90
2019-02-18T09:23:44.217Z,99.90
2019-02-18T09:26:14.797Z,99.90
2019-02-18T09:28:44.112Z,99.90
2019-02-18T09:31:13.221Z,99.90
2019-02-18T09:33:42.722Z,99.30
2019-02-18T09:36:11.841Z,98.40
2019-02-18T09:38:41.032Z,97.30
2019-02-18T09:41:09.978Z,96.30
2019-02-18T09:43:39.011Z,95.90
2019-02-18T09:46:07.964Z,95.20
2019-02-18T09:48:36.817Z,95.20
2019-02-18T09:51:06.343Z,93.60
2019-02-18T09:53:35.715Z,93.20
2019-02-18T09:56:05.092Z,91.90
2019-02-18T09:58:34.923Z,91.90
2019-02-18T10:01:04.266Z,89.50
2019-02-18T10:03:33.483Z,89.50
2019-02-18T10:06:02.714Z,87.20
2019-02-18T10:08:31.835Z,83.10
2019-02-18T10:11:01.023Z,85.90
2019-02-18T10:13:30.362Z,84.50
2019-02-18T10:15:59.693Z,85.80
2019-02-18T10:18:28.863Z,82.30
2019-02-18T10:20:57.872Z,84.60
2019-02-18T10:23:27.003Z,81.40
2019-02-18T10:25:56.073Z,80.30
2019-02-18T10:28:25.393Z,80.10
2019-02-18T10:30:54.392Z,79.40
2019-02-18T10:33:23.954Z,79.90
2019-02-18T10:35:59.529Z,77.60
2019-02-18T10:38:28.903Z,78.80
2019-02-18T10:41:06.424Z,75.00
2019-02-18T10:43:32.406Z,76.90
2019-02-18T10:45:59.573Z,74.60
2019-02-18T10:48:29.395Z,70.80
2019-02-18T10:50:58.322Z,69.70
2019-02-18T10:53:27.299Z,66.20
2019-02-18T10:55:56.266Z,68.80
2019-02-18T10:58:25.206Z,69.80
2019-02-18T11:00:54.092Z,68.60
2019-02-18T11:03:23.172Z,64.70
2019-02-18T11:05:52.124Z,58.50
2019-02-18T11:08:20.960Z,61.20
2019-02-18T11:10:49.941Z,64.10
2019-02-18T11:13:18.894Z,57.40
2019-02-18T11:15:47.842Z,58.80
2019-02-18T11:18:16.761Z,63.60
2019-02-18T11:20:45.813Z,60.90
2019-02-18T11:23:20.098Z,56.50
2019-02-18T11:25:49.266Z,56.00
2019-02-18T11:28:18.220Z,60.00
2019-02-18T11:30:47.085Z,57.00
2019-02-18T11:33:16.033Z,55.30
2019-02-18T11:35:44.944Z,57.20
2019-02-18T11:38:13.827Z,57.70
2019-02-18T11:40:42.766Z,58.90
2019-02-18T11:43:11.697Z,59.20
2019-02-18T11:45:40.638Z,61.20
2019-02-18T11:48:09.526Z,63.40
2019-02-18T11:50:38.530Z,60.10
2019-02-18T11:53:07.898Z,59.50
2019-02-18T11:55:38.905Z,60.20
2019-02-18T11:58:07.308Z,59.80
2019-02-18T12:00:36.266Z,62.80
2019-02-18T12:03:11.552Z,59.90
2019-02-18T12:05:35.723Z,60.30
2019-02-18T12:08:05.066Z,58.50
2019-02-18T12:10:43.363Z,61.80
2019-02-18T12:13:12.432Z,57.90
2019-02-18T12:15:41.392Z,59.10
2019-02-18T12:18:10.314Z,59.70
2019-02-18T12:20:39.250Z,59.20
2019-02-18T12:23:08.719Z,58.70
2019-02-18T12:25:37.597Z,58.70
2019-02-18T12:28:06.556Z,57.90
2019-02-18T12:30:35.514Z,57.80
2019-02-18T12:33:04.420Z,58.50
2019-02-18T12:35:34.962Z,59.30
2019-02-18T12:38:03.887Z,60.40
2019-02-18T12:40:32.838Z,62.50
2019-02-18T12:43:01.834Z,61.80
2019-02-18T12:45:30.731Z,62.60
2019-02-18T12:47:59.634Z,64.30
2019-02-18T12:50:28.584Z,66.10
2019-02-18T12:52:57.748Z,62.30
2019-02-18T12:55:26.934Z,61.20
2019-02-18T12:57:59.828Z,60.70
2019-02-18T13:00:29.683Z,59.80
2019-02-18T13:02:58.872Z,58.10
2019-02-18T13:05:28.357Z,57.20
2019-02-18T13:07:57.743Z,56.90
2019-02-18T13:10:34.739Z,54.50
2019-02-18T13:12:57.972Z,53.50
2019-02-18T13:15:27.403Z,50.00
2019-02-18T13:17:56.662Z,50.10
2019-02-18T13:20:26.111Z,49.70
2019-02-18T13:22:55.502Z,49.80
2019-02-18T13:25:24.772Z,48.40
2019-02-18T13:27:54.072Z,48.20
2019-02-18T13:30:23.032Z,48.40
2019-02-18T13:32:51.948Z,50.30
2019-02-18T13:35:20.836Z,52.40
2019-02-18T13:37:49.778Z,52.90
2019-02-18T13:40:18.683Z,54.40
2019-02-18T13:42:48.020Z,53.30
2019-02-18T13:45:35.164Z,51.80
2019-02-18T13:48:04.532Z,50.50
2019-02-18T13:50:34.087Z,49.50
2019-02-18T13:53:03.658Z,50.20
2019-02-18T13:55:33.019Z,50.20
2019-02-18T13:58:02.352Z,50.20
2019-02-18T14:00:32.132Z,50.70
2019-02-18T14:03:01.372Z,50.60
2019-02-18T14:05:30.731Z,51.30
2019-02-18T14:07:59.994Z,52.40
2019-02-18T14:10:28.911Z,52.70
2019-02-18T14:12:57.892Z,54.40
2019-02-18T14:15:26.756Z,55.10
2019-02-18T14:17:55.700Z,55.00
2019-02-18T14:20:24.680Z,57.10
2019-02-18T14:22:54.018Z,59.80
2019-02-18T14:25:22.892Z,64.20
2019-02-18T14:27:51.808Z,66.20
2019-02-18T14:30:20.746Z,68.30
2019-02-18T14:32:50.432Z,72.00
2019-02-18T14:35:19.652Z,73.20
2019-02-18T14:37:49.461Z,74.60
2019-02-18T14:40:21.125Z,75.30
2019-02-18T14:42:52.571Z,75.80
2019-02-18T14:45:21.868Z,76.50
2019-02-18T14:47:51.103Z,76.90
2019-02-18T14:50:19.958Z,77.30
2019-02-18T14:52:50.415Z,78.30
2019-02-18T14:55:19.266Z,78.60
2019-02-18T14:57:48.204Z,79.40
2019-02-18T15:00:22.432Z,79.80
2019-02-18T15:02:52.978Z,80.20
2019-02-18T15:05:22.293Z,80.30
2019-02-18T15:07:51.172Z,80.70
2019-02-18T15:10:20.076Z,80.90
2019-02-18T15:12:48.993Z,81.50
2019-02-18T15:15:17.975Z,82.80
2019-02-18T15:17:46.911Z,83.60
2019-02-18T15:20:16.063Z,84.40
2019-02-18T15:22:45.302Z,85.40
2019-02-18T15:25:14.822Z,86.40
2019-02-18T15:27:44.072Z,87.40
2019-02-18T15:30:16.892Z,88.30
2019-02-18T15:32:46.006Z,89.20
2019-02-18T15:35:15.772Z,89.90
2019-02-18T15:37:44.972Z,90.50
2019-02-18T15:40:15.892Z,90.90
2019-02-18T15:42:44.962Z,91.50
2019-02-18T15:45:14.462Z,92.10
2019-02-18T15:47:43.782Z,92.60
2019-02-18T15:50:14.254Z,93.50
2019-02-18T15:52:43.602Z,94.10
2019-02-18T15:55:12.801Z,94.60
2019-02-18T15:57:41.982Z,95.00
2019-02-18T16:00:14.232Z,95.60
2019-02-18T16:02:43.562Z,96.40
2019-02-18T16:05:12.794Z,96.70
2019-02-18T16:07:42.184Z,97.60
2019-02-18T16:10:11.482Z,97.80
2019-02-18T16:12:41.002Z,98.30
2019-02-18T16:15:11.712Z,98.70
2019-02-18T16:17:41.331Z,99.40
2019-02-18T16:20:15.161Z,99.70
2019-02-18T16:22:44.642Z,99.90
2019-02-18T16:25:19.543Z,99.90
2019-02-18T16:27:48.832Z,99.90
2019-02-18T16:30:18.141Z,99.90
2019-02-18T16:32:47.652Z,99.90
2019-02-18T16:35:17.012Z,99.90
2019-02-18T16:37:46.271Z,99.90
2019-02-18T16:40:19.153Z,99.90
2019-02-18T16:42:48.060Z,99.90
2019-02-18T16:45:17.003Z,99.90
2019-02-18T16:47:45.879Z,99.90
2019-02-18T16:50:14.828Z,99.90
2019-02-18T16:52:49.714Z,99.90
2019-02-18T16:55:18.887Z,99.90
2019-02-18T16:57:47.742Z,99.90
2019-02-18T17:00:22.323Z,99.90
2019-02-18T17:02:51.209Z,99.90
2019-02-18T17:05:20.088Z,99.90
2019-02-18T17:07:49.026Z,99.90
2019-02-18T17:10:17.890Z,99.90
2019-02-18T17:12:47.251Z,99.90
2019-02-18T17:15:16.105Z,99.90
2019-02-18T17:17:45.042Z,99.90
2019-02-18T17:20:14.015Z,99.90
2019-02-18T17:22:43.006Z,99.90
2019-02-18T17:25:13.017Z,99.90
2019-02-18T17:27:41.996Z,99.90
2019-02-18T17:30:13.593Z,99.90
2019-02-18T17:32:42.814Z,99.90
2019-02-18T17:35:15.147Z,99.90
2019-02-18T17:37:44.173Z,99.90
2019-02-18T17:40:20.082Z,99.90
2019-02-18T17:42:49.572Z,99.90
2019-02-18T17:45:19.082Z,99.90
2019-02-18T17:47:48.692Z,99.90
2019-02-18T17:50:18.562Z,99.90
2019-02-18T17:52:48.052Z,99.90
2019-02-18T17:55:18.702Z,99.90
2019-02-18T17:57:48.336Z,99.90
2019-02-18T18:00:21.567Z,99.90
2019-02-18T18:02:50.936Z,99.90
2019-02-18T18:05:20.306Z,99.90
2019-02-18T18:07:49.781Z,99.90
2019-02-18T18:10:19.451Z,99.90
2019-02-18T18:12:48.942Z,99.90
2019-02-18T18:15:20.481Z,99.90
2019-02-18T18:17:50.014Z,99.90
2019-02-18T18:20:20.632Z,99.90
2019-02-18T18:22:50.018Z,99.90
2019-02-18T18:25:19.431Z,99.90
2019-02-18T18:27:48.952Z,99.90
2019-02-18T18:30:19.080Z,99.90
2019-02-18T18:32:47.937Z,99.90
2019-02-18T18:35:17.007Z,99.90
2019-02-18T18:37:45.914Z,99.90
2019-02-18T18:40:17.121Z,99.90
2019-02-18T18:42:46.090Z,99.90
2019-02-18T18:45:15.874Z,99.90
2019-02-18T18:47:45.115Z,99.90
2019-02-18T18:50:16.766Z,99.90
2019-02-18T18:52:46.186Z,99.90
2019-02-18T18:55:15.350Z,99.90
2019-02-18T18:57:44.538Z,99.90
2019-02-18T19:00:17.432Z,99.90
2019-02-18T19:02:46.548Z,99.90
2019-02-18T19:05:15.661Z,99.90
2019-02-18T19:07:44.715Z,99.90
2019-02-18T19:10:14.059Z,99.90
2019-02-18T19:12:43.154Z,99.90
2019-02-18T19:15:19.004Z,99.90
2019-02-18T19:17:48.364Z,99.90
2019-02-18T19:20:18.003Z,99.90
2019-02-18T19:22:47.282Z,99.90
2019-02-18T19:25:16.825Z,99.90
2019-02-18T19:27:46.302Z,99.90
2019-02-18T19:30:18.422Z,99.90
2019-02-18T19:32:48.002Z,99.90
2019-02-18T19:35:17.421Z,99.90
2019-02-18T19:37:47.013Z,99.90
2019-02-18T19:40:16.401Z,99.90
2019-02-18T19:42:45.792Z,99.90
2019-02-18T19:45:23.986Z,99.90
2019-02-18T19:47:53.412Z,99.90
2019-02-18T19:50:22.824Z,99.90
2019-02-18T19:52:52.422Z,99.90
2019-02-18T19:55:21.862Z,99.90
2019-02-18T19:57:51.423Z,99.90
2019-02-18T20:00:21.603Z,99.90
2019-02-18T20:02:56.382Z,99.90
2019-02-18T20:05:25.334Z,99.90
2019-02-18T20:07:54.279Z,99.90
2019-02-18T20:10:24.626Z,99.90
2019-02-18T20:12:53.864Z,99.90
2019-02-18T20:15:22.832Z,99.90
2019-02-18T20:17:51.698Z,99.90
2019-02-18T20:20:20.693Z,99.90
2019-02-18T20:22:49.678Z,99.90
2019-02-18T20:25:18.694Z,99.90
2019-02-18T20:27:47.922Z,99.90
2019-02-18T20:30:17.855Z,99.90
2019-02-18T20:32:46.837Z,99.90
2019-02-18T20:35:15.960Z,99.90
2019-02-18T20:37:44.858Z,99.90
2019-02-18T20:40:14.144Z,99.90
2019-02-18T20:42:43.398Z,99.90
2019-02-18T20:45:13.028Z,99.90
2019-02-18T20:47:42.037Z,99.90
2019-02-18T20:50:13.083Z,99.90
2019-02-18T20:52:42.502Z,99.90
2019-02-18T20:55:13.423Z,99.90
2019-02-18T20:57:43.141Z,99.90
2019-02-18T21:00:18.192Z,99.90
2019-02-18T21:02:47.572Z,99.90
2019-02-18T21:05:16.567Z,99.90
2019-02-18T21:07:45.677Z,99.90
2019-02-18T21:10:17.371Z,99.90
2019-02-18T21:12:46.388Z,99.90
2019-02-18T21:15:16.107Z,99.90
2019-02-18T21:17:45.137Z,99.90
2019-02-18T21:20:14.963Z,99.90
2019-02-18T21:22:43.907Z,99.90
2019-02-18T21:25:13.170Z,99.90
2019-02-18T21:27:42.096Z,99.90
2019-02-18T21:30:13.927Z,99.90
2019-02-18T21:32:42.815Z,99.90
2019-02-18T21:35:11.997Z,99.90
2019-02-18T21:37:41.732Z,99.90
2019-02-18T21:40:12.342Z,99.90
2019-02-18T21:42:41.671Z,99.90
2019-02-18T21:45:15.598Z,99.90
2019-02-18T21:47:44.662Z,99.90
2019-02-18T21:50:14.173Z,99.90
2019-02-18T21:52:43.631Z,99.90
2019-02-18T21:55:12.989Z,99.90
2019-02-18T21:57:41.990Z,99.90
2019-02-18T22:00:18.325Z,99.90
2019-02-18T22:02:47.421Z,99.90
2019-02-18T22:05:16.715Z,99.90
2019-02-18T22:07:45.686Z,99.90
2019-02-18T22:10:14.823Z,99.90
2019-02-18T22:12:43.691Z,99.90
2019-02-18T22:15:14.755Z,99.90
2019-02-18T22:17:43.647Z,99.90
2019-02-18T22:20:13.934Z,99.90
2019-02-18T22:22:46.979Z,99.90
2019-02-18T22:25:17.032Z,99.90
2019-02-18T22:27:46.322Z,99.90
2019-02-18T22:30:17.012Z,99.90
2019-02-18T22:32:46.381Z,99.90
2019-02-18T22:35:16.004Z,99.90
2019-02-18T22:37:45.142Z,99.90
2019-02-18T22:40:14.627Z,99.90
2019-02-18T22:42:43.811Z,99.90
2019-02-18T22:45:13.764Z,99.90
2019-02-18T22:47:42.741Z,99.90
2019-02-18T22:50:12.264Z,99.90
2019-02-18T22:52:41.147Z,99.90
2019-02-18T22:55:10.876Z,99.90
2019-02-18T22:57:39.776Z,99.90
2019-02-18T23:00:11.599Z,99.90
2019-02-18T23:02:43.446Z,99.90
2019-02-18T23:05:12.832Z,99.90
2019-02-18T23:07:41.765Z,99.90
2019-02-18T23:10:10.630Z,99.90
2019-02-18T23:12:39.792Z,99.90
2019-02-18T23:15:09.262Z,99.90
2019-02-18T23:17:38.172Z,99.90
2019-02-18T23:20:07.137Z,99.90
2019-02-18T23:22:36.375Z,99.90
2019-02-18T23:25:05.229Z,99.90
2019-02-18T23:27:34.111Z,99.90
2019-02-18T23:30:03.099Z,99.90
2019-02-18T23:32:32.039Z,99.90
2019-02-18T23:35:00.894Z,99.90
2019-02-18T23:37:30.162Z,99.90
2019-02-18T23:39:59.110Z,99.90
2019-02-18T23:42:28.056Z,99.90
2019-02-18T23:44:59.273Z,99.90
2019-02-18T23:47:27.792Z,99.90
2019-02-18T23:49:56.739Z,99.90
2019-02-18T23:52:25.666Z,99.90
2019-02-18T23:54:54.565Z,99.90
2019-02-18T23:57:36.436Z,99.90
